Time;durP1;ratioP1;P1;durP2;ratioP2;P2;SDS_P1;SDS_P2;PMS_P1;PMS_P2;Temp;Humidity;BMP_temperature;BMP_pressure;BME280_temperature;BME280_humidity;BME280_pressure;Samples;Min_cycle;Max_cycle;Signal;HPM_P1;HPM_P2
2023/08/02 00:02:16;;;;;;;4.17;2.13;;;20.00;99.90;;;;;;5055324;28;20176;-86
2023/08/02 00:04:42;;;;;;;3.53;1.67;;;19.90;99.90;;;;;;5027517;28;20200;-86
2023/08/02 00:07:10;;;;;;;3.23;1.63;;;20.10;99.90;;;;;;5033503;28;20187;-86
2023/08/02 00:09:36;;;;;;;3.00;1.60;;;20.20;99.90;;;;;;5034356;28;20181;-86
2023/08/02 00:12:02;;;;;;;4.53;1.90;;;20.30;99.90;;;;;;5030253;28;20235;-86
2023/08/02 00:14:31;;;;;;;3.50;1.93;;;20.40;99.90;;;;;;5049516;28;20690;-86
2023/08/02 00:17:08;;;;;;;3.30;1.70;;;20.50;99.90;;;;;;5047123;28;20187;-86
2023/08/02 00:19:58;;;;;;;3.10;1.80;;;20.50;99.90;;;;;;5049567;28;20577;-86
2023/08/02 00:22:27;;;;;;;2.70;1.70;;;20.50;99.90;;;;;;5268675;22;20243;-86
2023/08/02 00:24:52;;;;;;;4.27;1.87;;;20.50;99.90;;;;;;5031547;28;20224;-85
2023/08/02 00:27:18;;;;;;;5.17;2.07;;;20.50;99.90;;;;;;5026746;28;20549;-86
2023/08/02 00:29:44;;;;;;;4.70;2.00;;;20.20;99.90;;;;;;5043743;28;20212;-85
2023/08/02 00:32:12;;;;;;;4.53;1.70;;;20.00;99.90;;;;;;5027373;28;20233;-86
2023/08/02 00:34:38;;;;;;;3.70;1.70;;;19.90;99.90;;;;;;5033465;28;20176;-85
2023/08/02 00:37:12;;;;;;;5.00;2.00;;;19.70;99.90;;;;;;5032086;28;20223;-85
2023/08/02 00:39:54;;;;;;;3.47;1.77;;;19.80;99.90;;;;;;5031827;28;20238;-86
2023/08/02 00:42:21;;;;;;;4.93;1.87;;;19.90;99.90;;;;;;5028683;28;20350;-86
2023/08/02 00:44:52;;;;;;;4.73;2.10;;;19.80;99.90;;;;;;5045343;28;20196;-86
2023/08/02 00:47:18;;;;;;;4.33;2.10;;;20.00;99.90;;;;;;5043842;28;20181;-86
2023/08/02 00:49:45;;;;;;;4.03;1.97;;;20.00;99.90;;;;;;5030103;28;20176;-86
2023/08/02 00:52:20;;;;;;;3.27;1.73;;;20.00;99.90;;;;;;5031265;28;20459;-86
2023/08/02 00:54:47;;;;;;;3.10;1.50;;;20.20;99.90;;;;;;5032293;28;20462;-86
2023/08/02 00:57:14;;;;;;;2.57;1.57;;;20.20;99.90;;;;;;5033701;28;20177;-85
2023/08/02 00:59:42;;;;;;;3.70;1.73;;;20.40;99.90;;;;;;5030653;28;20215;-85
2023/08/02 01:03:04;;;;;;;2.93;1.70;;;20.30;99.90;;;;;;5038427;28;20187;-86
2023/08/02 01:05:41;;;;;;;3.60;1.80;;;20.50;99.90;;;;;;5027554;28;20205;-86
2023/08/02 01:08:11;;;;;;;2.67;1.87;;;20.40;99.90;;;;;;5023102;28;20190;-86
2023/08/02 01:10:50;;;;;;;6.13;1.90;;;20.00;99.90;;;;;;5026226;28;20397;-86
2023/08/02 01:13:18;;;;;;;3.80;1.77;;;19.70;99.90;;;;;;5025535;28;20408;-87
2023/08/02 01:15:46;;;;;;;4.67;1.80;;;19.70;99.90;;;;;;5025515;28;20188;-87
2023/08/02 01:18:13;;;;;;;3.77;2.00;;;19.60;99.90;;;;;;5024655;28;20275;-87
2023/08/02 01:20:39;;;;;;;3.77;1.70;;;19.60;99.90;;;;;;5028628;28;20524;-87
2023/08/02 01:23:04;;;;;;;5.70;2.10;;;19.40;99.90;;;;;;5027287;28;20214;-86
2023/08/02 01:25:32;;;;;;;2.73;1.50;;;19.40;99.90;;;;;;5026106;28;20288;-86
2023/08/02 01:28:17;;;;;;;4.40;1.83;;;19.40;99.90;;;;;;5025814;28;20195;-86
2023/08/02 01:30:44;;;;;;;2.97;1.60;;;19.30;99.90;;;;;;5032067;28;20188;-86
2023/08/02 01:33:10;;;;;;;3.27;1.83;;;19.50;99.90;;;;;;5028915;28;20184;-86
2023/08/02 01:35:37;;;;;;;3.23;1.57;;;19.60;99.90;;;;;;5029368;28;20514;-86
2023/08/02 01:38:06;;;;;;;3.60;1.57;;;19.90;99.90;;;;;;5027260;28;20307;-86
2023/08/02 01:40:31;;;;;;;2.30;1.60;;;20.00;99.90;;;;;;5044759;28;20192;-87
2023/08/02 01:43:00;;;;;;;3.00;1.50;;;20.20;99.90;;;;;;5030564;28;20184;-87
2023/08/02 01:45:26;;;;;;;2.57;1.33;;;20.10;99.90;;;;;;5024129;28;20209;-87
2023/08/02 01:47:52;;;;;;;3.07;1.70;;;19.90;99.90;;;;;;5030041;28;20279;-86
2023/08/02 01:50:20;;;;;;;5.27;1.60;;;20.20;99.90;;;;;;5029204;28;20566;-86
2023/08/02 01:52:49;;;;;;;4.47;1.80;;;20.20;99.90;;;;;;5030689;28;20180;-86
2023/08/02 01:55:18;;;;;;;3.60;1.67;;;20.40;99.90;;;;;;5027592;28;20558;-87
2023/08/02 01:57:44;;;;;;;2.67;1.77;;;20.40;99.90;;;;;;5030288;28;20253;-87
2023/08/02 02:00:12;;;;;;;3.37;1.60;;;20.40;99.90;;;;;;5045122;28;20177;-87
2023/08/02 02:02:37;;;;;;;4.27;1.77;;;20.10;99.90;;;;;;5027385;28;20235;-87
2023/08/02 02:05:04;;;;;;;3.23;1.60;;;20.00;99.90;;;;;;5029118;28;20588;-87
2023/08/02 02:07:29;;;;;;;2.87;1.43;;;20.20;99.90;;;;;;5043643;28;20184;-87
2023/08/02 02:09:55;;;;;;;3.20;1.60;;;20.30;99.90;;;;;;5047804;28;20180;-87
2023/08/02 02:12:20;;;;;;;2.63;1.57;;;20.40;99.90;;;;;;5027019;28;20196;-87
2023/08/02 02:14:46;;;;;;;2.97;1.60;;;20.60;99.90;;;;;;5029710;28;20618;-87
2023/08/02 02:17:12;;;;;;;2.50;1.53;;;20.60;99.90;;;;;;5028060;28;20192;-87
2023/08/02 02:19:37;;;;;;;2.57;1.67;;;20.70;99.90;;;;;;5028644;28;20406;-87
2023/08/02 02:22:03;;;;;;;2.37;1.40;;;20.80;99.90;;;;;;5046178;28;20204;-87
2023/08/02 02:24:29;;;;;;;2.17;1.17;;;20.80;99.90;;;;;;5027900;28;20219;-87
2023/08/02 02:26:55;;;;;;;3.57;1.60;;;20.80;99.90;;;;;;5029346;28;20176;-87
2023/08/02 02:29:21;;;;;;;2.40;1.40;;;20.80;99.90;;;;;;5027128;28;20181;-87
2023/08/02 02:31:46;;;;;;;3.03;1.70;;;20.80;99.90;;;;;;5029159;28;20406;-87
2023/08/02 02:34:12;;;;;;;2.53;1.47;;;20.80;99.90;;;;;;5025333;28;20243;-87
2023/08/02 02:36:44;;;;;;;2.90;1.80;;;20.90;99.90;;;;;;5025806;28;20187;-87
2023/08/02 02:39:10;;;;;;;1.77;1.37;;;20.90;99.90;;;;;;5027919;28;20224;-87
2023/08/02 02:41:35;;;;;;;2.50;1.67;;;20.70;99.90;;;;;;5028455;28;20216;-87
2023/08/02 02:44:01;;;;;;;2.63;1.70;;;20.70;99.90;;;;;;5043090;28;20177;-87
2023/08/02 02:46:27;;;;;;;2.57;1.60;;;20.60;99.90;;;;;;5024142;28;20230;-87
2023/08/02 02:48:52;;;;;;;3.20;1.80;;;20.40;99.90;;;;;;5028414;28;20516;-87
2023/08/02 02:51:18;;;;;;;3.20;1.73;;;20.50;99.90;;;;;;5042888;28;20314;-87
2023/08/02 02:53:46;;;;;;;2.33;1.63;;;20.50;99.90;;;;;;5045004;28;20355;-87
2023/08/02 02:56:12;;;;;;;2.70;1.60;;;20.50;99.90;;;;;;5025913;28;20246;-87
2023/08/02 02:58:37;;;;;;;3.40;1.70;;;20.60;99.90;;;;;;5023652;28;20435;-87
2023/08/02 03:01:03;;;;;;;2.87;1.70;;;20.70;99.90;;;;;;5025960;28;20192;-87
2023/08/02 03:03:28;;;;;;;3.50;2.00;;;20.60;99.90;;;;;;5023707;28;20566;-87
2023/08/02 03:05:54;;;;;;;3.87;1.60;;;20.40;99.90;;;;;;5028296;28;20215;-87
2023/08/02 03:08:23;;;;;;;2.53;1.70;;;20.40;99.90;;;;;;5024824;28;20246;-87
2023/08/02 03:10:48;;;;;;;3.70;1.67;;;20.40;99.90;;;;;;5044170;28;20720;-87
2023/08/02 03:13:14;;;;;;;3.00;1.67;;;20.50;99.90;;;;;;5024618;28;20181;-87
2023/08/02 03:15:40;;;;;;;3.63;1.63;;;20.50;99.90;;;;;;5027600;28;20258;-87
2023/08/02 03:18:05;;;;;;;2.90;1.57;;;20.40;99.90;;;;;;5026633;28;20181;-87
2023/08/02 03:20:31;;;;;;;2.33;1.70;;;20.40;99.90;;;;;;5042802;28;20554;-87
2023/08/02 03:22:57;;;;;;;2.70;1.70;;;20.50;99.90;;;;;;5022914;28;20197;-87
2023/08/02 03:25:26;;;;;;;3.07;1.70;;;20.40;99.90;;;;;;5026438;28;20309;-87
2023/08/02 03:27:52;;;;;;;3.03;1.80;;;20.20;99.90;;;;;;5045031;28;20206;-87
2023/08/02 03:30:17;;;;;;;3.27;1.80;;;20.10;99.90;;;;;;5024371;28;20275;-87
2023/08/02 03:32:43;;;;;;;5.27;1.87;;;19.80;99.90;;;;;;5023908;28;20187;-87
2023/08/02 03:35:09;;;;;;;3.07;1.80;;;19.60;99.90;;;;;;5024742;28;20279;-87
2023/08/02 03:37:34;;;;;;;3.13;1.90;;;19.40;99.90;;;;;;5044261;28;20176;-86
2023/08/02 03:40:00;;;;;;;3.60;2.10;;;19.30;99.90;;;;;;5023412;28;20474;-86
2023/08/02 03:42:26;;;;;;;3.90;1.80;;;19.00;99.90;;;;;;5025532;28;20187;-87
2023/08/02 03:44:52;;;;;;;4.23;2.17;;;19.00;99.90;;;;;;5024828;28;20197;-87
2023/08/02 03:47:18;;;;;;;2.67;1.70;;;19.00;99.90;;;;;;5031312;28;20203;-86
2023/08/02 03:49:43;;;;;;;4.57;1.90;;;18.90;99.90;;;;;;5024629;28;20219;-86
2023/08/02 03:52:09;;;;;;;2.90;1.80;;;19.10;99.90;;;;;;5025790;28;20474;-86
2023/08/02 03:54:35;;;;;;;4.03;1.90;;;19.00;99.90;;;;;;5025057;28;20290;-87
2023/08/02 03:57:00;;;;;;;3.37;1.87;;;19.00;99.90;;;;;;5024322;28;20188;-86
2023/08/02 03:59:26;;;;;;;4.20;2.00;;;18.70;99.90;;;;;;5041845;28;20584;-87
2023/08/02 04:01:51;;;;;;;3.23;1.70;;;18.70;99.90;;;;;;5025494;28;20213;-87
2023/08/02 04:04:17;;;;;;;8.70;2.07;;;18.60;99.90;;;;;;5023132;28;20243;-87
2023/08/02 04:06:43;;;;;;;4.07;1.80;;;18.50;99.90;;;;;;5025986;28;20191;-86
2023/08/02 04:09:11;;;;;;;4.57;1.90;;;18.60;99.90;;;;;;5027392;28;20188;-87
2023/08/02 04:11:37;;;;;;;3.63;1.97;;;18.80;99.90;;;;;;5023861;28;20188;-87
2023/08/02 04:14:04;;;;;;;5.20;1.90;;;18.80;99.90;;;;;;5023783;28;20561;-86
2023/08/02 04:16:29;;;;;;;3.80;1.90;;;19.00;99.90;;;;;;5025592;28;20189;-87
2023/08/02 04:18:58;;;;;;;3.37;1.80;;;18.80;99.90;;;;;;5023626;28;20194;-86
2023/08/02 04:21:23;;;;;;;2.80;1.70;;;18.60;99.90;;;;;;5025532;28;20184;-86
2023/08/02 04:23:53;;;;;;;3.07;1.63;;;18.70;99.90;;;;;;5040296;28;20187;-87
2023/08/02 04:26:18;;;;;;;4.23;1.80;;;18.70;99.90;;;;;;5040141;28;20585;-87
2023/08/02 04:28:47;;;;;;;3.47;1.83;;;19.00;99.90;;;;;;5025774;28;20186;-87
2023/08/02 04:31:15;;;;;;;3.97;1.80;;;19.00;99.90;;;;;;5021756;28;20186;-87
2023/08/02 04:33:41;;;;;;;3.40;1.70;;;19.10;99.90;;;;;;5024759;28;20186;-87
2023/08/02 04:36:07;;;;;;;3.50;1.73;;;19.10;99.90;;;;;;5023702;28;20518;-87
2023/08/02 04:38:33;;;;;;;3.43;1.80;;;18.90;99.90;;;;;;5037457;28;20300;-87
2023/08/02 04:40:58;;;;;;;5.10;2.00;;;18.90;99.90;;;;;;5019442;28;20190;-87
2023/08/02 04:43:24;;;;;;;2.33;1.70;;;18.80;99.90;;;;;;5023326;28;20222;-87
2023/08/02 04:45:50;;;;;;;4.53;1.90;;;18.90;99.90;;;;;;5023975;28;20359;-87
2023/08/02 04:48:16;;;;;;;3.20;1.83;;;18.90;99.90;;;;;;5020949;28;20176;-87
2023/08/02 04:50:45;;;;;;;2.87;1.90;;;19.00;99.90;;;;;;5024323;28;20211;-86
2023/08/02 04:53:11;;;;;;;3.30;1.93;;;19.00;99.90;;;;;;5018282;28;20431;-86
2023/08/02 04:55:44;;;;;;;4.03;1.87;;;18.90;99.90;;;;;;5024546;28;20202;-87
2023/08/02 04:58:09;;;;;;;3.03;1.77;;;19.00;99.90;;;;;;5021718;28;20208;-86
2023/08/02 05:00:38;;;;;;;2.03;1.73;;;19.00;99.90;;;;;;5026945;28;20212;-87
2023/08/02 05:03:04;;;;;;;4.10;1.63;;;18.90;99.90;;;;;;5024110;28;20187;-87
2023/08/02 05:05:31;;;;;;;2.43;1.70;;;19.00;99.90;;;;;;5040203;28;20620;-87
2023/08/02 05:07:56;;;;;;;3.43;1.87;;;18.90;99.90;;;;;;5039904;28;20281;-86
2023/08/02 05:10:22;;;;;;;2.37;1.90;;;18.90;99.90;;;;;;5032210;28;20219;-87
2023/08/02 05:12:49;;;;;;;2.87;1.73;;;18.90;99.90;;;;;;5024488;28;20185;-87
2023/08/02 05:15:14;;;;;;;3.33;1.83;;;19.00;99.90;;;;;;5039616;28;20199;-87
2023/08/02 05:17:40;;;;;;;3.13;2.00;;;18.90;99.90;;;;;;5038928;28;20172;-87
2023/08/02 05:20:06;;;;;;;2.57;1.70;;;18.70;99.90;;;;;;5027753;28;20182;-86
2023/08/02 05:22:32;;;;;;;3.67;1.90;;;18.80;99.90;;;;;;5026075;28;20242;-86
2023/08/02 05:24:58;;;;;;;2.17;1.83;;;18.90;99.90;;;;;;5024180;28;20587;-86
2023/08/02 05:27:23;;;;;;;7.67;2.27;;;18.90;99.90;;;;;;5024793;28;20188;-86
2023/08/02 05:29:52;;;;;;;2.23;1.97;;;19.20;99.90;;;;;;5024258;28;20245;-86
2023/08/02 05:32:18;;;;;;;4.73;1.90;;;19.30;99.90;;;;;;5044707;28;20176;-86
2023/08/02 05:34:43;;;;;;;2.97;1.70;;;19.20;99.90;;;;;;5040000;28;20177;-86
2023/08/02 05:37:09;;;;;;;2.47;1.77;;;19.30;99.90;;;;;;5026975;28;20245;-87
2023/08/02 05:39:35;;;;;;;4.30;1.90;;;19.30;99.90;;;;;;5022473;28;20645;-87
2023/08/02 05:42:00;;;;;;;2.60;2.07;;;19.30;99.90;;;;;;5025741;28;20340;-87
2023/08/02 05:44:26;;;;;;;3.60;1.93;;;19.20;99.90;;;;;;5021901;28;20283;-87
2023/08/02 05:46:52;;;;;;;3.10;1.80;;;19.40;99.90;;;;;;5024000;28;20320;-86
2023/08/02 05:49:17;;;;;;;3.23;2.20;;;19.40;99.90;;;;;;5023489;28;20421;-87
2023/08/02 05:51:43;;;;;;;2.93;2.07;;;19.10;99.90;;;;;;5027759;28;20249;-86
2023/08/02 05:54:09;;;;;;;3.13;2.20;;;19.10;99.90;;;;;;5023084;28;20223;-87
2023/08/02 05:56:34;;;;;;;3.20;2.07;;;19.30;99.90;;;;;;5024242;28;20196;-87
2023/08/02 05:59:02;;;;;;;3.77;1.80;;;19.10;99.90;;;;;;5041306;28;20195;-87
2023/08/02 06:01:28;;;;;;;5.20;1.70;;;19.20;99.90;;;;;;5023907;28;20573;-88
2023/08/02 06:03:59;;;;;;;4.07;2.00;;;19.30;99.90;;;;;;5024549;28;20177;-87
2023/08/02 06:06:25;;;;;;;4.83;1.90;;;19.40;99.90;;;;;;5022993;28;20578;-87
2023/08/02 06:08:50;;;;;;;2.10;1.90;;;19.40;99.90;;;;;;5026142;28;20176;-87
2023/08/02 06:11:17;;;;;;;3.17;1.87;;;19.50;99.90;;;;;;5022858;28;20208;-87
2023/08/02 06:13:43;;;;;;;2.57;2.00;;;19.40;99.90;;;;;;5026557;28;20533;-87
2023/08/02 06:16:09;;;;;;;2.20;2.00;;;19.30;99.90;;;;;;5038741;28;20191;-86
2023/08/02 06:18:34;;;;;;;3.23;2.13;;;19.30;99.90;;;;;;5024419;28;20258;-87
2023/08/02 06:21:00;;;;;;;2.90;2.20;;;19.20;99.90;;;;;;5023445;28;20238;-87
2023/08/02 06:23:26;;;;;;;3.40;1.80;;;19.40;99.90;;;;;;5037918;28;20448;-87
2023/08/02 06:25:52;;;;;;;3.23;2.30;;;19.50;99.90;;;;;;5041192;28;20516;-87
2023/08/02 06:28:19;;;;;;;5.50;2.07;;;19.40;99.90;;;;;;5025588;28;20183;-87
2023/08/02 06:30:45;;;;;;;2.43;1.93;;;19.50;99.90;;;;;;5019066;28;20180;-87
2023/08/02 06:33:11;;;;;;;4.27;2.40;;;19.30;99.90;;;;;;5019277;28;20270;-87
2023/08/02 06:35:36;;;;;;;5.03;2.27;;;19.50;99.90;;;;;;5038925;28;20180;-87
2023/08/02 06:38:02;;;;;;;3.80;2.53;;;19.40;99.90;;;;;;5019753;28;20180;-88
2023/08/02 06:40:33;;;;;;;3.93;2.40;;;19.40;99.90;;;;;;5020713;28;20625;-87
2023/08/02 06:42:58;;;;;;;3.67;2.30;;;19.30;99.90;;;;;;5018589;28;20185;-87
2023/08/02 06:45:24;;;;;;;3.60;2.30;;;19.30;99.90;;;;;;5024214;28;20324;-87
2023/08/02 06:47:49;;;;;;;4.33;2.57;;;19.50;99.90;;;;;;5036172;28;20246;-87
2023/08/02 06:50:15;;;;;;;3.63;2.27;;;19.30;99.90;;;;;;5023087;28;20187;-88
2023/08/02 06:52:41;;;;;;;4.27;2.47;;;19.30;99.90;;;;;;5022519;28;20192;-88
2023/08/02 06:55:08;;;;;;;5.47;2.70;;;19.30;99.90;;;;;;5017579;28;20184;-88
2023/08/02 06:57:33;;;;;;;3.97;2.33;;;19.50;99.90;;;;;;5020555;28;20188;-87
2023/08/02 06:59:59;;;;;;;2.93;2.30;;;19.60;99.90;;;;;;5037871;28;20355;-88
2023/08/02 07:02:25;;;;;;;3.53;2.57;;;19.70;99.90;;;;;;5034821;28;20224;-87
2023/08/02 07:04:51;;;;;;;5.20;3.50;;;19.60;99.90;;;;;;5021771;28;20499;-88
2023/08/02 07:07:17;;;;;;;5.00;2.60;;;19.50;99.90;;;;;;5019254;28;20177;-88
2023/08/02 07:09:46;;;;;;;4.03;2.43;;;19.30;99.90;;;;;;5034380;28;20173;-88
2023/08/02 07:12:11;;;;;;;4.23;2.73;;;19.30;99.90;;;;;;5019909;28;20176;-88
2023/08/02 07:14:37;;;;;;;4.57;2.57;;;19.30;99.90;;;;;;5018223;28;20306;-88
2023/08/02 07:17:03;;;;;;;2.90;2.30;;;19.30;99.90;;;;;;5020156;28;20216;-87
2023/08/02 07:19:30;;;;;;;3.07;2.20;;;19.40;99.90;;;;;;5020218;28;20216;-87
2023/08/02 07:21:56;;;;;;;3.07;2.33;;;19.40;99.90;;;;;;5020774;28;20199;-88
2023/08/02 07:24:21;;;;;;;2.67;2.20;;;19.40;99.90;;;;;;5017463;28;20183;-88
2023/08/02 07:26:47;;;;;;;3.13;2.10;;;19.40;99.90;;;;;;5018037;28;20177;-88
2023/08/02 07:29:12;;;;;;;3.93;2.10;;;19.40;99.90;;;;;;5019159;28;20296;-88
2023/08/02 07:31:38;;;;;;;2.47;2.20;;;19.50;99.90;;;;;;5018723;28;20189;-87
2023/08/02 07:34:03;;;;;;;3.70;2.10;;;19.30;99.90;;;;;;5019784;28;20206;-88
2023/08/02 07:36:29;;;;;;;2.80;2.00;;;19.50;99.90;;;;;;5017356;28;20189;-88
2023/08/02 07:38:55;;;;;;;1.83;1.70;;;19.50;99.90;;;;;;5034836;28;20194;-88
2023/08/02 07:41:23;;;;;;;3.40;1.93;;;19.40;99.90;;;;;;5019387;28;20439;-88
2023/08/02 07:43:49;;;;;;;2.70;1.90;;;19.40;99.90;;;;;;5034785;28;20516;-87
2023/08/02 07:46:19;;;;;;;2.53;1.93;;;19.40;99.90;;;;;;5017954;28;20652;-87
2023/08/02 07:48:46;;;;;;;3.23;1.73;;;19.20;99.90;;;;;;5018172;28;20195;-87
2023/08/02 07:51:11;;;;;;;2.60;1.73;;;19.10;99.90;;;;;;5016161;28;20349;-87
2023/08/02 07:53:37;;;;;;;1.70;1.50;;;19.10;99.90;;;;;;5016194;28;20508;-87
2023/08/02 07:56:03;;;;;;;1.87;1.40;;;19.30;99.90;;;;;;5021105;28;20203;-89
2023/08/02 07:58:29;;;;;;;2.47;1.70;;;19.30;99.90;;;;;;5034486;28;20300;-89
2023/08/02 08:00:55;;;;;;;2.23;1.60;;;19.30;99.90;;;;;;5017888;28;20358;-89
2023/08/02 08:03:21;;;;;;;1.60;1.50;;;19.30;99.90;;;;;;5016738;28;20411;-88
2023/08/02 08:05:47;;;;;;;1.33;1.20;;;19.10;99.90;;;;;;5016133;28;20600;-88
2023/08/02 08:08:16;;;;;;;1.47;1.37;;;19.20;99.90;;;;;;5034354;28;20550;-88
2023/08/02 08:10:48;;;;;;;2.63;1.40;;;19.40;99.90;;;;;;5019075;28;20219;-87
2023/08/02 08:13:14;;;;;;;3.17;1.50;;;19.40;99.90;;;;;;5018561;28;20188;-88
2023/08/02 08:15:43;;;;;;;1.40;1.30;;;19.40;99.90;;;;;;5021295;28;20175;-88
2023/08/02 08:18:09;;;;;;;1.30;1.20;;;19.40;99.90;;;;;;5015880;28;20199;-88
2023/08/02 08:20:35;;;;;;;1.50;1.40;;;19.60;99.90;;;;;;5034754;28;20458;-88
2023/08/02 08:23:00;;;;;;;2.13;1.60;;;19.70;99.90;;;;;;5016503;28;20204;-88
2023/08/02 08:25:26;;;;;;;1.57;1.47;;;19.90;99.90;;;;;;5011812;28;20208;-87
2023/08/02 08:27:52;;;;;;;1.27;1.17;;;20.10;99.90;;;;;;5014275;28;20180;-87
2023/08/02 08:30:17;;;;;;;2.03;1.60;;;20.30;99.90;;;;;;5034098;28;20535;-88
2023/08/02 08:32:46;;;;;;;1.70;1.30;;;20.30;99.90;;;;;;5030767;28;20184;-85
2023/08/02 08:35:12;;;;;;;2.60;1.47;;;20.40;99.90;;;;;;5019220;28;20321;-85
2023/08/02 08:37:37;;;;;;;1.70;1.60;;;20.30;99.90;;;;;;5019282;28;20191;-84
2023/08/02 08:40:04;;;;;;;2.33;1.40;;;20.30;99.90;;;;;;5015511;28;20185;-86
2023/08/02 08:42:30;;;;;;;2.70;1.67;;;20.30;99.90;;;;;;5017456;28;20238;-85
2023/08/02 08:44:57;;;;;;;3.23;1.70;;;20.20;99.90;;;;;;5016269;28;20558;-86
2023/08/02 08:47:26;;;;;;;2.50;1.80;;;20.20;99.90;;;;;;5015525;28;20192;-85
2023/08/02 08:49:51;;;;;;;1.70;1.60;;;20.10;99.90;;;;;;5036030;28;20207;-85
2023/08/02 08:52:19;;;;;;;3.93;1.43;;;20.00;99.90;;;;;;5015437;28;20589;-85
2023/08/02 08:54:49;;;;;;;3.07;1.50;;;20.20;99.90;;;;;;5019490;28;20255;-85
2023/08/02 08:57:16;;;;;;;1.63;1.23;;;20.40;99.90;;;;;;5021792;28;20187;-86
2023/08/02 08:59:42;;;;;;;1.70;1.60;;;20.50;99.90;;;;;;5026926;28;20263;-85
2023/08/02 09:02:08;;;;;;;1.40;1.30;;;20.50;99.90;;;;;;5019915;28;20227;-85
2023/08/02 09:04:35;;;;;;;2.63;1.40;;;20.30;99.90;;;;;;5017656;28;20581;-84
2023/08/02 09:07:01;;;;;;;2.40;1.70;;;20.30;99.90;;;;;;5015904;28;20177;-84
2023/08/02 09:09:26;;;;;;;1.90;1.70;;;20.40;99.90;;;;;;5020091;28;20380;-85
2023/08/02 09:11:52;;;;;;;2.33;1.20;;;20.20;99.90;;;;;;5016453;28;20176;-84
2023/08/02 09:14:19;;;;;;;1.80;1.30;;;20.20;99.90;;;;;;5040261;28;20375;-84
2023/08/02 09:17:04;;;;;;;2.10;1.30;;;20.30;99.90;;;;;;5039386;28;20193;-85
2023/08/02 09:19:32;;;;;;;1.40;1.20;;;20.40;99.90;;;;;;5042046;28;20210;-85
2023/08/02 09:22:17;;;;;;;1.30;1.20;;;20.50;99.90;;;;;;5022799;28;20197;-85
2023/08/02 09:24:45;;;;;;;1.30;1.20;;;20.50;99.90;;;;;;5024490;28;20550;-85
2023/08/02 09:27:17;;;;;;;3.27;1.63;;;20.70;99.90;;;;;;5022499;28;20557;-85
2023/08/02 09:29:51;;;;;;;1.60;1.40;;;20.80;99.90;;;;;;5020464;28;20191;-85
2023/08/02 09:32:18;;;;;;;1.50;1.20;;;21.00;99.90;;;;;;5019347;28;20176;-85
2023/08/02 09:34:46;;;;;;;1.70;1.40;;;20.70;99.90;;;;;;5022799;28;20436;-85
2023/08/02 09:37:16;;;;;;;1.33;1.23;;;20.60;99.90;;;;;;5039439;28;20529;-84
2023/08/02 09:39:50;;;;;;;1.40;1.20;;;20.60;99.90;;;;;;5038623;28;20182;-85
2023/08/02 09:42:21;;;;;;;1.63;1.20;;;20.80;99.90;;;;;;5018670;28;20197;-86
2023/08/02 09:44:53;;;;;;;1.53;1.00;;;20.90;99.90;;;;;;5018772;28;20237;-85
2023/08/02 09:47:19;;;;;;;1.30;1.10;;;20.90;99.90;;;;;;5019659;28;20216;-85
2023/08/02 09:50:00;;;;;;;1.50;1.10;;;21.00;99.90;;;;;;5017954;28;20207;-84
2023/08/02 09:52:26;;;;;;;1.03;0.90;;;20.70;99.90;;;;;;5019537;28;20181;-85
2023/08/02 09:54:53;;;;;;;1.60;0.90;;;20.70;99.90;;;;;;5018880;28;20184;-84
2023/08/02 09:57:24;;;;;;;1.57;1.00;;;20.70;99.90;;;;;;5017781;28;20603;-84
2023/08/02 09:59:51;;;;;;;1.10;1.00;;;20.70;99.90;;;;;;5022111;28;20195;-85
2023/08/02 10:02:18;;;;;;;1.90;1.00;;;20.80;99.90;;;;;;5035790;28;20444;-85
2023/08/02 10:04:44;;;;;;;1.97;1.00;;;21.10;99.90;;;;;;5017660;28;20208;-85
2023/08/02 10:07:14;;;;;;;1.57;0.90;;;21.30;99.90;;;;;;5018824;28;20181;-85
2023/08/02 10:09:42;;;;;;;1.50;1.10;;;21.40;99.90;;;;;;5014957;28;20182;-85
2023/08/02 10:12:09;;;;;;;1.07;0.87;;;21.40;99.90;;;;;;5021885;28;20208;-84
2023/08/02 10:14:36;;;;;;;0.70;0.70;;;21.40;99.90;;;;;;5037275;28;20251;-86
2023/08/02 10:17:03;;;;;;;1.43;0.80;;;21.50;99.90;;;;;;5017205;28;20184;-84
2023/08/02 10:19:32;;;;;;;1.30;0.80;;;21.50;99.90;;;;;;5018286;28;20176;-84
2023/08/02 10:21:58;;;;;;;0.60;0.60;;;21.50;99.90;;;;;;5019662;28;20264;-85
2023/08/02 10:24:28;;;;;;;0.90;0.80;;;21.50;99.90;;;;;;5017457;28;20257;-85
2023/08/02 10:26:56;;;;;;;1.07;0.90;;;21.50;99.90;;;;;;5024420;28;20523;-85
2023/08/02 10:29:27;;;;;;;0.87;0.80;;;21.50;99.90;;;;;;5022192;28;20196;-85
2023/08/02 10:31:55;;;;;;;0.80;0.80;;;21.60;99.90;;;;;;5022471;28;20265;-84
2023/08/02 10:34:41;;;;;;;1.13;0.70;;;21.70;99.90;;;;;;5036860;28;20364;-85
2023/08/02 10:37:07;;;;;;;0.70;0.70;;;21.80;99.90;;;;;;5020091;28;20247;-86
2023/08/02 10:39:52;;;;;;;0.77;0.77;;;21.80;99.90;;;;;;5016453;28;20223;-86
2023/08/02 10:42:20;;;;;;;0.60;0.60;;;21.90;99.90;;;;;;5019210;28;20249;-87
2023/08/02 10:44:55;;;;;;;0.70;0.70;;;21.90;99.90;;;;;;5015084;28;20368;-87
2023/08/02 10:47:32;;;;;;;1.00;0.87;;;21.90;99.90;;;;;;5015198;28;20222;-86
2023/08/02 10:49:59;;;;;;;0.90;0.83;;;21.80;99.90;;;;;;5014976;28;20562;-85
2023/08/02 10:52:45;;;;;;;1.50;0.70;;;21.80;99.90;;;;;;5034358;28;20503;-85
2023/08/02 10:55:18;;;;;;;1.80;0.77;;;21.80;99.90;;;;;;5015292;28;20200;-84
2023/08/02 10:57:56;;;;;;;0.90;0.73;;;21.70;99.90;;;;;;5018405;28;20353;-86
2023/08/02 11:00:29;;;;;;;1.37;0.80;;;21.70;99.90;;;;;;5016122;28;20515;-86
2023/08/02 11:02:55;;;;;;;0.80;0.70;;;21.60;99.90;;;;;;5030343;28;20376;-86
2023/08/02 11:05:37;;;;;;;0.93;0.70;;;21.60;99.90;;;;;;5014168;28;20224;-85
2023/08/02 11:08:03;;;;;;;0.60;0.60;;;21.80;99.90;;;;;;5018874;28;20172;-86
2023/08/02 11:10:28;;;;;;;1.00;0.70;;;22.00;99.90;;;;;;5020978;28;20187;-86
2023/08/02 11:12:56;;;;;;;0.53;0.53;;;21.90;99.90;;;;;;5015894;28;20211;-85
2023/08/02 11:15:22;;;;;;;0.70;0.70;;;21.90;99.90;;;;;;5019413;28;20463;-86
2023/08/02 11:17:55;;;;;;;0.60;0.60;;;21.90;99.90;;;;;;5018104;28;20365;-85
2023/08/02 11:20:31;;;;;;;0.97;0.60;;;21.90;99.90;;;;;;5014634;28;20192;-85
2023/08/02 11:22:57;;;;;;;0.43;0.43;;;22.00;99.90;;;;;;5015686;28;20203;-86
2023/08/02 11:25:23;;;;;;;0.90;0.50;;;22.10;99.90;;;;;;5018793;28;20207;-86
2023/08/02 11:28:03;;;;;;;1.53;0.60;;;22.20;99.90;;;;;;5033301;28;20435;-86
2023/08/02 11:30:28;;;;;;;0.60;0.60;;;22.20;99.90;;;;;;5018426;28;20266;-86
2023/08/02 11:32:54;;;;;;;1.50;0.70;;;22.30;99.90;;;;;;5030078;28;20349;-85
2023/08/02 11:35:20;;;;;;;0.60;0.60;;;22.40;99.90;;;;;;5014406;28;20234;-86
2023/08/02 11:37:46;;;;;;;0.60;0.60;;;22.40;99.90;;;;;;5014909;28;20185;-84
2023/08/02 11:40:13;;;;;;;0.90;0.70;;;22.50;99.90;;;;;;5014981;28;20188;-85
2023/08/02 11:42:50;;;;;;;0.50;0.50;;;22.50;99.90;;;;;;5015384;28;20331;-85
2023/08/02 11:45:37;;;;;;;0.50;0.50;;;22.60;99.90;;;;;;5030779;28;20367;-85
2023/08/02 11:48:05;;;;;;;0.53;0.53;;;22.60;99.90;;;;;;5030533;28;20188;-84
2023/08/02 11:50:34;;;;;;;0.50;0.50;;;22.60;99.90;;;;;;5031901;28;20180;-86
2023/08/02 11:53:08;;;;;;;1.43;0.43;;;22.60;99.90;;;;;;5015761;28;20172;-86
2023/08/02 11:55:35;;;;;;;0.60;0.60;;;22.60;99.90;;;;;;5016471;28;20188;-86
2023/08/02 11:58:05;;;;;;;0.50;0.50;;;22.70;99.90;;;;;;5015601;28;20416;-86
2023/08/02 12:00:33;;;;;;;0.60;0.60;;;22.70;99.90;;;;;;5020480;28;20466;-86
2023/08/02 12:03:09;;;;;;;0.63;0.60;;;22.70;99.90;;;;;;5041941;28;20224;-86
2023/08/02 12:05:35;;;;;;;0.73;0.57;;;22.70;99.90;;;;;;5041069;28;20317;-86
2023/08/02 12:08:17;;;;;;;0.60;0.47;;;22.70;99.90;;;;;;5018335;28;20781;-86
2023/08/02 12:10:46;;;;;;;2.07;0.60;;;22.70;99.90;;;;;;5019079;28;20558;-86
2023/08/02 12:13:16;;;;;;;0.50;0.50;;;22.80;99.90;;;;;;5015470;28;20172;-85
2023/08/02 12:16:04;;;;;;;0.50;0.50;;;22.70;99.90;;;;;;5015902;28;20192;-85
2023/08/02 12:18:30;;;;;;;1.50;0.50;;;22.70;99.90;;;;;;5032424;28;20176;-85
2023/08/02 12:20:56;;;;;;;1.17;0.40;;;22.80;99.90;;;;;;5019537;28;20187;-86
2023/08/02 12:23:35;;;;;;;0.60;0.47;;;22.80;99.90;;;;;;5033649;28;20346;-85
2023/08/02 12:26:05;;;;;;;0.63;0.40;;;22.70;99.90;;;;;;5031188;28;20290;-86
2023/08/02 12:28:44;;;;;;;0.50;0.50;;;22.70;99.90;;;;;;5032393;28;20238;-85
2023/08/02 12:31:10;;;;;;;0.63;0.63;;;22.70;99.90;;;;;;5018282;28;20549;-86
2023/08/02 12:33:37;;;;;;;0.60;0.50;;;22.70;99.90;;;;;;5020240;28;20245;-86
2023/08/02 12:36:06;;;;;;;0.40;0.40;;;22.70;99.90;;;;;;5039730;28;20573;-86
2023/08/02 12:38:32;;;;;;;1.73;0.50;;;22.80;99.90;;;;;;5018369;28;20192;-86
2023/08/02 12:40:58;;;;;;;0.40;0.40;;;22.80;99.90;;;;;;5022611;28;20184;-86
2023/08/02 12:43:25;;;;;;;0.50;0.50;;;22.70;99.90;;;;;;5038518;28;20449;-86
2023/08/02 12:45:54;;;;;;;3.00;0.70;;;22.60;99.90;;;;;;5037322;28;20223;-86
2023/08/02 12:48:19;;;;;;;0.50;0.50;;;22.70;99.90;;;;;;5022567;28;20282;-84
2023/08/02 12:50:45;;;;;;;0.30;0.30;;;22.70;99.90;;;;;;5022402;28;20377;-86
2023/08/02 12:53:11;;;;;;;0.60;0.60;;;22.70;99.90;;;;;;5020852;28;20195;-86